sensor_id;sensor_type;location;lat;lon;timestamp;temperature;humidity
16116;DHT22;8162;47.104;15.432;2022-09-03T00:00:10;15.10;78.70
16116;DHT22;8162;47.104;15.432;2022-09-03T00:02:49;15.00;78.60
16116;DHT22;8162;47.104;15.432;2022-09-03T00:05:28;14.90;78.70
16116;DHT22;8162;47.104;15.432;2022-09-03T00:13:39;14.80;79.10
16116;DHT22;8162;47.104;15.432;2022-09-03T00:16:10;14.80;79.10
16116;DHT22;8162;47.104;15.432;2022-09-03T00:18:51;14.80;79.00
16116;DHT22;8162;47.104;15.432;2022-09-03T00:21:35;14.70;79.00
16116;DHT22;8162;47.104;15.432;2022-09-03T00:24:04;14.70;79.50
16116;DHT22;8162;47.104;15.432;2022-09-03T00:26:34;14.70;79.40
16116;DHT22;8162;47.104;15.432;2022-09-03T00:29:40;14.70;79.60
16116;DHT22;8162;47.104;15.432;2022-09-03T00:32:16;14.60;79.40
16116;DHT22;8162;47.104;15.432;2022-09-03T00:34:48;14.50;79.50
16116;DHT22;8162;47.104;15.432;2022-09-03T00:37:15;14.50;79.60
16116;DHT22;8162;47.104;15.432;2022-09-03T00:39:41;14.50;80.00
16116;DHT22;8162;47.104;15.432;2022-09-03T00:52:56;14.60;79.50
16116;DHT22;8162;47.104;15.432;2022-09-03T01:01:14;14.50;79.60
16116;DHT22;8162;47.104;15.432;2022-09-03T01:03:56;14.40;79.80
16116;DHT22;8162;47.104;15.432;2022-09-03T01:06:29;14.30;80.00
16116;DHT22;8162;47.104;15.432;2022-09-03T01:11:52;14.20;80.20
16116;DHT22;8162;47.104;15.432;2022-09-03T01:28:21;14.30;80.40
16116;DHT22;8162;47.104;15.432;2022-09-03T01:42:23;14.20;80.70
16116;DHT22;8162;47.104;15.432;2022-09-03T01:44:58;14.10;80.50
16116;DHT22;8162;47.104;15.432;2022-09-03T01:56:39;13.90;80.90
16116;DHT22;8162;47.104;15.432;2022-09-03T01:59:14;13.90;81.20
16116;DHT22;8162;47.104;15.432;2022-09-03T02:01:52;13.80;81.30
16116;DHT22;8162;47.104;15.432;2022-09-03T02:04:23;13.80;81.10
16116;DHT22;8162;47.104;15.432;2022-09-03T02:06:50;13.80;81.10
16116;DHT22;8162;47.104;15.432;2022-09-03T02:09:16;13.80;81.10
16116;DHT22;8162;47.104;15.432;2022-09-03T02:11:44;13.80;81.20
16116;DHT22;8162;47.104;15.432;2022-09-03T02:14:11;13.80;81.20
16116;DHT22;8162;47.104;15.432;2022-09-03T02:16:38;13.80;81.20
16116;DHT22;8162;47.104;15.432;2022-09-03T02:19:08;13.90;81.30
16116;DHT22;8162;47.104;15.432;2022-09-03T02:21:43;13.80;81.10
16116;DHT22;8162;47.104;15.432;2022-09-03T02:24:10;13.80;81.10
16116;DHT22;8162;47.104;15.432;2022-09-03T02:26:35;13.80;81.30
16116;DHT22;8162;47.104;15.432;2022-09-03T02:29:02;13.80;81.40
16116;DHT22;8162;47.104;15.432;2022-09-03T02:31:28;13.70;81.40
16116;DHT22;8162;47.104;15.432;2022-09-03T02:33:55;13.80;81.20
16116;DHT22;8162;47.104;15.432;2022-09-03T02:36:26;13.70;81.50
16116;DHT22;8162;47.104;15.432;2022-09-03T02:38:52;13.70;81.40
16116;DHT22;8162;47.104;15.432;2022-09-03T02:41:18;13.70;81.60
16116;DHT22;8162;47.104;15.432;2022-09-03T02:44:20;13.60;81.50
16116;DHT22;8162;47.104;15.432;2022-09-03T02:47:02;13.50;81.40
16116;DHT22;8162;47.104;15.432;2022-09-03T02:49:29;13.50;81.80
16116;DHT22;8162;47.104;15.432;2022-09-03T02:52:04;13.50;82.00
16116;DHT22;8162;47.104;15.432;2022-09-03T02:54:35;13.50;81.90
16116;DHT22;8162;47.104;15.432;2022-09-03T02:57:06;13.40;81.90
16116;DHT22;8162;47.104;15.432;2022-09-03T02:59:32;13.50;82.00
16116;DHT22;8162;47.104;15.432;2022-09-03T03:01:57;13.40;82.20
16116;DHT22;8162;47.104;15.432;2022-09-03T03:04:23;13.40;82.00
16116;DHT22;8162;47.104;15.432;2022-09-03T03:06:49;13.50;82.10
16116;DHT22;8162;47.104;15.432;2022-09-03T03:09:17;13.40;81.90
16116;DHT22;8162;47.104;15.432;2022-09-03T03:11:43;13.40;82.00
16116;DHT22;8162;47.104;15.432;2022-09-03T03:14:09;13.40;82.30
16116;DHT22;8162;47.104;15.432;2022-09-03T03:16:35;13.40;82.10
16116;DHT22;8162;47.104;15.432;2022-09-03T03:19:01;13.40;82.20
16116;DHT22;8162;47.104;15.432;2022-09-03T03:21:27;13.40;81.90
16116;DHT22;8162;47.104;15.432;2022-09-03T03:23:52;13.40;81.90
16116;DHT22;8162;47.104;15.432;2022-09-03T03:26:19;13.40;81.80
16116;DHT22;8162;47.104;15.432;2022-09-03T03:28:47;13.40;81.90
16116;DHT22;8162;47.104;15.432;2022-09-03T03:31:20;13.30;81.70
16116;DHT22;8162;47.104;15.432;2022-09-03T03:33:54;13.30;81.90
16116;DHT22;8162;47.104;15.432;2022-09-03T03:36:21;13.30;82.20
16116;DHT22;8162;47.104;15.432;2022-09-03T03:38:47;13.30;82.10
16116;DHT22;8162;47.104;15.432;2022-09-03T03:41:24;13.30;82.00
16116;DHT22;8162;47.104;15.432;2022-09-03T03:43:54;13.30;82.10
16116;DHT22;8162;47.104;15.432;2022-09-03T03:46:22;13.30;82.20
16116;DHT22;8162;47.104;15.432;2022-09-03T03:48:49;13.20;82.20
16116;DHT22;8162;47.104;15.432;2022-09-03T03:51:15;13.30;82.20
16116;DHT22;8162;47.104;15.432;2022-09-03T03:53:41;13.30;82.20
16116;DHT22;8162;47.104;15.432;2022-09-03T03:56:10;13.20;82.20
16116;DHT22;8162;47.104;15.432;2022-09-03T03:58:37;13.20;82.00
16116;DHT22;8162;47.104;15.432;2022-09-03T04:01:05;13.20;82.20
16116;DHT22;8162;47.104;15.432;2022-09-03T04:03:32;13.20;82.20
16116;DHT22;8162;47.104;15.432;2022-09-03T04:05:58;13.20;82.20
16116;DHT22;8162;47.104;15.432;2022-09-03T04:08:26;13.30;82.00
16116;DHT22;8162;47.104;15.432;2022-09-03T04:10:52;13.30;82.10
16116;DHT22;8162;47.104;15.432;2022-09-03T04:13:18;13.30;82.00
16116;DHT22;8162;47.104;15.432;2022-09-03T04:15:44;13.30;82.00
16116;DHT22;8162;47.104;15.432;2022-09-03T04:18:10;13.20;82.10
16116;DHT22;8162;47.104;15.432;2022-09-03T04:20:36;13.20;82.10
16116;DHT22;8162;47.104;15.432;2022-09-03T04:23:03;13.20;82.20
16116;DHT22;8162;47.104;15.432;2022-09-03T04:25:29;13.20;82.50
16116;DHT22;8162;47.104;15.432;2022-09-03T04:27:55;13.20;82.40
16116;DHT22;8162;47.104;15.432;2022-09-03T04:30:21;13.30;82.40
16116;DHT22;8162;47.104;15.432;2022-09-03T04:32:50;13.20;82.30
16116;DHT22;8162;47.104;15.432;2022-09-03T04:35:23;13.20;82.20
16116;DHT22;8162;47.104;15.432;2022-09-03T04:37:50;13.20;82.20
16116;DHT22;8162;47.104;15.432;2022-09-03T04:40:16;13.10;82.30
16116;DHT22;8162;47.104;15.432;2022-09-03T04:42:42;13.10;82.30
16116;DHT22;8162;47.104;15.432;2022-09-03T04:45:09;13.00;82.70
16116;DHT22;8162;47.104;15.432;2022-09-03T04:47:36;13.10;82.70
16116;DHT22;8162;47.104;15.432;2022-09-03T04:50:03;13.10;82.50
16116;DHT22;8162;47.104;15.432;2022-09-03T04:52:30;13.10;82.50
16116;DHT22;8162;47.104;15.432;2022-09-03T04:54:56;13.10;82.40
16116;DHT22;8162;47.104;15.432;2022-09-03T04:57:22;13.10;82.40
16116;DHT22;8162;47.104;15.432;2022-09-03T04:59:48;13.20;82.70
16116;DHT22;8162;47.104;15.432;2022-09-03T05:02:14;13.20;82.50
16116;DHT22;8162;47.104;15.432;2022-09-03T05:04:41;13.10;82.50
16116;DHT22;8162;47.104;15.432;2022-09-03T05:07:07;13.10;82.80
16116;DHT22;8162;47.104;15.432;2022-09-03T05:09:33;13.10;82.90
16116;DHT22;8162;47.104;15.432;2022-09-03T05:11:59;13.10;83.10
16116;DHT22;8162;47.104;15.432;2022-09-03T05:14:25;13.30;83.20
16116;DHT22;8162;47.104;15.432;2022-09-03T05:16:50;13.30;83.20
16116;DHT22;8162;47.104;15.432;2022-09-03T05:19:16;13.30;83.20
16116;DHT22;8162;47.104;15.432;2022-09-03T05:21:42;13.30;83.30
16116;DHT22;8162;47.104;15.432;2022-09-03T05:24:08;13.30;83.40
16116;DHT22;8162;47.104;15.432;2022-09-03T05:26:37;13.40;83.40
16116;DHT22;8162;47.104;15.432;2022-09-03T05:29:05;13.30;83.40
16116;DHT22;8162;47.104;15.432;2022-09-03T05:31:36;13.30;83.50
16116;DHT22;8162;47.104;15.432;2022-09-03T05:34:04;13.30;83.70
16116;DHT22;8162;47.104;15.432;2022-09-03T05:36:35;13.40;83.90
16116;DHT22;8162;47.104;15.432;2022-09-03T05:39:02;13.40;83.90
16116;DHT22;8162;47.104;15.432;2022-09-03T05:41:28;13.40;83.80
16116;DHT22;8162;47.104;15.432;2022-09-03T05:43:55;13.50;83.50
16116;DHT22;8162;47.104;15.432;2022-09-03T05:46:24;13.50;83.30
16116;DHT22;8162;47.104;15.432;2022-09-03T05:48:58;13.60;83.30
16116;DHT22;8162;47.104;15.432;2022-09-03T05:51:24;13.60;83.30
16116;DHT22;8162;47.104;15.432;2022-09-03T05:53:50;13.70;83.30
16116;DHT22;8162;47.104;15.432;2022-09-03T05:56:19;13.70;83.10
16116;DHT22;8162;47.104;15.432;2022-09-03T05:58:48;13.70;83.00
16116;DHT22;8162;47.104;15.432;2022-09-03T06:01:31;13.70;83.00
16116;DHT22;8162;47.104;15.432;2022-09-03T06:06:25;13.70;83.10
16116;DHT22;8162;47.104;15.432;2022-09-03T06:08:56;13.80;83.20
16116;DHT22;8162;47.104;15.432;2022-09-03T06:11:23;13.80;83.40
16116;DHT22;8162;47.104;15.432;2022-09-03T06:14:01;13.80;83.40
16116;DHT22;8162;47.104;15.432;2022-09-03T06:16:29;13.80;83.40
16116;DHT22;8162;47.104;15.432;2022-09-03T06:18:56;13.80;83.50
16116;DHT22;8162;47.104;15.432;2022-09-03T06:21:21;13.80;83.60
16116;DHT22;8162;47.104;15.432;2022-09-03T06:23:51;13.80;83.50
16116;DHT22;8162;47.104;15.432;2022-09-03T06:26:18;13.80;83.60
16116;DHT22;8162;47.104;15.432;2022-09-03T06:28:45;13.90;83.60
16116;DHT22;8162;47.104;15.432;2022-09-03T06:31:15;13.90;83.60
16116;DHT22;8162;47.104;15.432;2022-09-03T06:33:41;14.00;83.50
16116;DHT22;8162;47.104;15.432;2022-09-03T06:36:10;14.00;83.50
16116;DHT22;8162;47.104;15.432;2022-09-03T06:38:38;14.00;83.40
16116;DHT22;8162;47.104;15.432;2022-09-03T06:41:09;14.00;83.40
16116;DHT22;8162;47.104;15.432;2022-09-03T06:43:37;14.10;83.40
16116;DHT22;8162;47.104;15.432;2022-09-03T06:46:06;14.10;83.50
16116;DHT22;8162;47.104;15.432;2022-09-03T06:48:33;14.10;83.50
16116;DHT22;8162;47.104;15.432;2022-09-03T06:51:04;14.20;83.40
16116;DHT22;8162;47.104;15.432;2022-09-03T06:53:33;14.20;83.50
16116;DHT22;8162;47.104;15.432;2022-09-03T06:56:02;14.30;83.50
16116;DHT22;8162;47.104;15.432;2022-09-03T06:58:30;14.30;83.60
16116;DHT22;8162;47.104;15.432;2022-09-03T07:01:16;14.30;83.50
16116;DHT22;8162;47.104;15.432;2022-09-03T07:03:44;14.40;83.60
16116;DHT22;8162;47.104;15.432;2022-09-03T07:06:15;14.40;83.50
16116;DHT22;8162;47.104;15.432;2022-09-03T07:08:41;14.40;83.70
16116;DHT22;8162;47.104;15.432;2022-09-03T07:11:10;14.50;83.70
16116;DHT22;8162;47.104;15.432;2022-09-03T07:13:46;14.50;83.80
16116;DHT22;8162;47.104;15.432;2022-09-03T07:16:15;14.60;83.80
16116;DHT22;8162;47.104;15.432;2022-09-03T07:18:41;14.60;83.60
16116;DHT22;8162;47.104;15.432;2022-09-03T07:21:20;14.70;83.60
16116;DHT22;8162;47.104;15.432;2022-09-03T07:23:47;14.70;83.50
16116;DHT22;8162;47.104;15.432;2022-09-03T07:26:19;14.70;83.40
16116;DHT22;8162;47.104;15.432;2022-09-03T07:28:45;14.80;83.40
16116;DHT22;8162;47.104;15.432;2022-09-03T07:31:13;14.80;83.30
16116;DHT22;8162;47.104;15.432;2022-09-03T07:33:40;14.90;83.30
16116;DHT22;8162;47.104;15.432;2022-09-03T07:36:11;14.90;83.20
16116;DHT22;8162;47.104;15.432;2022-09-03T07:38:39;15.00;83.10
16116;DHT22;8162;47.104;15.432;2022-09-03T07:41:07;15.00;82.80
16116;DHT22;8162;47.104;15.432;2022-09-03T07:43:41;15.00;82.50
16116;DHT22;8162;47.104;15.432;2022-09-03T07:46:21;15.10;82.20
16116;DHT22;8162;47.104;15.432;2022-09-03T07:48:51;15.20;82.10
16116;DHT22;8162;47.104;15.432;2022-09-03T07:51:19;15.30;81.90
16116;DHT22;8162;47.104;15.432;2022-09-03T07:53:46;15.30;81.30
16116;DHT22;8162;47.104;15.432;2022-09-03T07:56:12;15.40;80.70
16116;DHT22;8162;47.104;15.432;2022-09-03T07:58:39;15.50;80.80
16116;DHT22;8162;47.104;15.432;2022-09-03T08:01:17;15.60;81.00
16116;DHT22;8162;47.104;15.432;2022-09-03T08:03:49;15.60;81.20
16116;DHT22;8162;47.104;15.432;2022-09-03T08:06:17;15.70;81.10
16116;DHT22;8162;47.104;15.432;2022-09-03T08:08:43;15.70;80.60
16116;DHT22;8162;47.104;15.432;2022-09-03T08:11:17;15.80;80.40
16116;DHT22;8162;47.104;15.432;2022-09-03T08:13:57;15.90;80.60
16116;DHT22;8162;47.104;15.432;2022-09-03T08:16:35;16.10;78.20
16116;DHT22;8162;47.104;15.432;2022-09-03T08:19:00;16.20;78.30
16116;DHT22;8162;47.104;15.432;2022-09-03T08:21:27;16.30;78.00
16116;DHT22;8162;47.104;15.432;2022-09-03T08:23:54;16.50;77.40
16116;DHT22;8162;47.104;15.432;2022-09-03T08:26:27;16.50;76.20
16116;DHT22;8162;47.104;15.432;2022-09-03T08:28:53;16.60;75.60
16116;DHT22;8162;47.104;15.432;2022-09-03T08:31:21;16.60;76.40
16116;DHT22;8162;47.104;15.432;2022-09-03T08:33:52;16.80;76.30
16116;DHT22;8162;47.104;15.432;2022-09-03T08:36:23;16.80;76.40
16116;DHT22;8162;47.104;15.432;2022-09-03T08:38:50;16.80;76.70
16116;DHT22;8162;47.104;15.432;2022-09-03T08:46:46;17.00;76.10
16116;DHT22;8162;47.104;15.432;2022-09-03T08:49:23;17.10;75.80
16116;DHT22;8162;47.104;15.432;2022-09-03T08:51:53;17.10;76.00
16116;DHT22;8162;47.104;15.432;2022-09-03T08:54:24;17.10;76.50
16116;DHT22;8162;47.104;15.432;2022-09-03T08:56:52;17.20;76.10
16116;DHT22;8162;47.104;15.432;2022-09-03T08:59:18;17.30;75.10
16116;DHT22;8162;47.104;15.432;2022-09-03T09:02:13;17.40;76.20
16116;DHT22;8162;47.104;15.432;2022-09-03T09:07:31;17.80;73.60
16116;DHT22;8162;47.104;15.432;2022-09-03T09:15:47;18.00;74.40
16116;DHT22;8162;47.104;15.432;2022-09-03T09:18:43;18.20;71.50
16116;DHT22;8162;47.104;15.432;2022-09-03T09:21:21;18.20;72.50
16116;DHT22;8162;47.104;15.432;2022-09-03T09:23:49;18.30;72.00
16116;DHT22;8162;47.104;15.432;2022-09-03T09:26:17;18.50;72.40
16116;DHT22;8162;47.104;15.432;2022-09-03T09:28:45;18.50;72.20
16116;DHT22;8162;47.104;15.432;2022-09-03T09:31:14;18.50;72.50
16116;DHT22;8162;47.104;15.432;2022-09-03T09:33:41;18.60;71.30
16116;DHT22;8162;47.104;15.432;2022-09-03T09:36:12;18.70;72.40
16116;DHT22;8162;47.104;15.432;2022-09-03T09:38:41;18.60;71.40
16116;DHT22;8162;47.104;15.432;2022-09-03T09:41:17;18.60;71.40
16116;DHT22;8162;47.104;15.432;2022-09-03T09:43:45;18.70;71.50
16116;DHT22;8162;47.104;15.432;2022-09-03T09:46:25;18.70;68.90
16116;DHT22;8162;47.104;15.432;2022-09-03T09:48:54;18.80;70.50
16116;DHT22;8162;47.104;15.432;2022-09-03T09:51:25;18.80;70.70
16116;DHT22;8162;47.104;15.432;2022-09-03T09:54:16;18.70;68.80
16116;DHT22;8162;47.104;15.432;2022-09-03T09:56:43;18.80;69.00
16116;DHT22;8162;47.104;15.432;2022-09-03T09:59:10;18.90;70.40
16116;DHT22;8162;47.104;15.432;2022-09-03T10:01:40;19.00;70.80
16116;DHT22;8162;47.104;15.432;2022-09-03T10:04:10;19.00;70.30
16116;DHT22;8162;47.104;15.432;2022-09-03T10:06:37;19.00;70.30
16116;DHT22;8162;47.104;15.432;2022-09-03T10:09:21;19.00;70.10
16116;DHT22;8162;47.104;15.432;2022-09-03T10:14:34;19.30;68.90
16116;DHT22;8162;47.104;15.432;2022-09-03T10:17:15;19.40;68.70
16116;DHT22;8162;47.104;15.432;2022-09-03T10:20:04;19.50;68.50
16116;DHT22;8162;47.104;15.432;2022-09-03T10:22:53;19.40;69.20
16116;DHT22;8162;47.104;15.432;2022-09-03T10:25:20;19.50;67.90
16116;DHT22;8162;47.104;15.432;2022-09-03T10:27:50;19.50;69.00
16116;DHT22;8162;47.104;15.432;2022-09-03T10:30:17;19.50;68.90
16116;DHT22;8162;47.104;15.432;2022-09-03T10:35:34;19.50;69.00
16116;DHT22;8162;47.104;15.432;2022-09-03T10:46:26;19.80;70.60
16116;DHT22;8162;47.104;15.432;2022-09-03T10:51:48;19.90;70.40
16116;DHT22;8162;47.104;15.432;2022-09-03T10:57:07;20.20;67.10
16116;DHT22;8162;47.104;15.432;2022-09-03T11:04:56;20.30;66.30
16116;DHT22;8162;47.104;15.432;2022-09-03T11:07:31;20.50;67.20
16116;DHT22;8162;47.104;15.432;2022-09-03T11:12:53;20.60;67.40
16116;DHT22;8162;47.104;15.432;2022-09-03T11:15:50;20.60;66.40
16116;DHT22;8162;47.104;15.432;2022-09-03T11:18:27;20.70;67.20
16116;DHT22;8162;47.104;15.432;2022-09-03T11:20:59;20.70;66.80
16116;DHT22;8162;47.104;15.432;2022-09-03T11:23:31;20.70;66.90
16116;DHT22;8162;47.104;15.432;2022-09-03T11:26:03;20.80;67.60
16116;DHT22;8162;47.104;15.432;2022-09-03T11:28:59;20.80;67.80
16116;DHT22;8162;47.104;15.432;2022-09-03T11:34:24;20.80;67.30
16116;DHT22;8162;47.104;15.432;2022-09-03T11:36:51;21.00;66.00
16116;DHT22;8162;47.104;15.432;2022-09-03T11:39:51;21.20;66.10
16116;DHT22;8162;47.104;15.432;2022-09-03T11:42:11;21.20;66.70
16116;DHT22;8162;47.104;15.432;2022-09-03T11:44:42;21.40;66.20
16116;DHT22;8162;47.104;15.432;2022-09-03T11:47:23;21.50;66.10
16116;DHT22;8162;47.104;15.432;2022-09-03T11:49:51;21.50;66.70
16116;DHT22;8162;47.104;15.432;2022-09-03T11:52:31;21.70;64.50
16116;DHT22;8162;47.104;15.432;2022-09-03T11:54:57;21.80;63.60
16116;DHT22;8162;47.104;15.432;2022-09-03T11:57:27;22.00;62.00
16116;DHT22;8162;47.104;15.432;2022-09-03T11:59:53;22.10;62.70
16116;DHT22;8162;47.104;15.432;2022-09-03T12:02:24;22.20;60.60
16116;DHT22;8162;47.104;15.432;2022-09-03T12:05:22;22.20;60.70
16116;DHT22;8162;47.104;15.432;2022-09-03T12:08:13;22.30;61.50
16116;DHT22;8162;47.104;15.432;2022-09-03T12:13:20;22.60;62.80
16116;DHT22;8162;47.104;15.432;2022-09-03T12:18:21;23.00;61.60
16116;DHT22;8162;47.104;15.432;2022-09-03T12:21:00;23.30;59.60
16116;DHT22;8162;47.104;15.432;2022-09-03T12:23:30;23.70;57.50
16116;DHT22;8162;47.104;15.432;2022-09-03T12:26:01;24.10;57.60
16116;DHT22;8162;47.104;15.432;2022-09-03T12:28:28;24.50;55.80
16116;DHT22;8162;47.104;15.432;2022-09-03T12:31:09;24.80;54.00
16116;DHT22;8162;47.104;15.432;2022-09-03T12:33:44;25.30;53.20
16116;DHT22;8162;47.104;15.432;2022-09-03T12:36:12;25.70;51.80
16116;DHT22;8162;47.104;15.432;2022-09-03T12:38:38;26.00;50.40
16116;DHT22;8162;47.104;15.432;2022-09-03T12:41:04;26.20;50.10
16116;DHT22;8162;47.104;15.432;2022-09-03T12:43:30;26.40;50.70
16116;DHT22;8162;47.104;15.432;2022-09-03T12:45:55;26.70;50.60
16116;DHT22;8162;47.104;15.432;2022-09-03T12:48:21;26.80;50.70
16116;DHT22;8162;47.104;15.432;2022-09-03T12:50:59;27.10;50.90
16116;DHT22;8162;47.104;15.432;2022-09-03T12:53:25;27.20;47.60
16116;DHT22;8162;47.104;15.432;2022-09-03T12:55:55;27.40;49.20
16116;DHT22;8162;47.104;15.432;2022-09-03T12:58:27;27.70;47.90
16116;DHT22;8162;47.104;15.432;2022-09-03T13:06:02;28.60;47.40
16116;DHT22;8162;47.104;15.432;2022-09-03T13:08:33;28.90;47.60
16116;DHT22;8162;47.104;15.432;2022-09-03T13:11:03;28.90;45.60
16116;DHT22;8162;47.104;15.432;2022-09-03T13:13:32;28.90;46.30
16116;DHT22;8162;47.104;15.432;2022-09-03T13:21:52;29.30;45.30
16116;DHT22;8162;47.104;15.432;2022-09-03T13:30:10;30.00;43.30
16116;DHT22;8162;47.104;15.432;2022-09-03T13:35:38;30.40;40.90
16116;DHT22;8162;47.104;15.432;2022-09-03T13:38:24;30.40;41.50
16116;DHT22;8162;47.104;15.432;2022-09-03T13:43:48;29.90;43.50
16116;DHT22;8162;47.104;15.432;2022-09-03T13:46:23;30.10;43.30
16116;DHT22;8162;47.104;15.432;2022-09-03T13:49:03;30.30;43.80
16116;DHT22;8162;47.104;15.432;2022-09-03T13:51:57;30.70;43.20
16116;DHT22;8162;47.104;15.432;2022-09-03T13:54:33;30.70;41.80
16116;DHT22;8162;47.104;15.432;2022-09-03T13:57:22;30.80;41.40
16116;DHT22;8162;47.104;15.432;2022-09-03T14:00:08;31.10;42.90
16116;DHT22;8162;47.104;15.432;2022-09-03T14:08:33;30.70;41.40
16116;DHT22;8162;47.104;15.432;2022-09-03T14:27:10;28.50;46.20
16116;DHT22;8162;47.104;15.432;2022-09-03T14:29:36;28.30;45.50
16116;DHT22;8162;47.104;15.432;2022-09-03T14:32:23;28.70;46.70
16116;DHT22;8162;47.104;15.432;2022-09-03T14:35:21;28.60;45.00
16116;DHT22;8162;47.104;15.432;2022-09-03T14:38:28;28.70;46.40
16116;DHT22;8162;47.104;15.432;2022-09-03T14:49:44;28.10;47.90
16116;DHT22;8162;47.104;15.432;2022-09-03T14:55:30;27.50;48.00
16116;DHT22;8162;47.104;15.432;2022-09-03T14:58:12;27.20;49.50
16116;DHT22;8162;47.104;15.432;2022-09-03T15:12:15;27.20;49.70
16116;DHT22;8162;47.104;15.432;2022-09-03T15:15:09;27.10;49.70
16116;DHT22;8162;47.104;15.432;2022-09-03T15:20:51;26.80;51.20
16116;DHT22;8162;47.104;15.432;2022-09-03T15:23:41;26.60;50.80
16116;DHT22;8162;47.104;15.432;2022-09-03T15:29:12;26.20;52.20
16116;DHT22;8162;47.104;15.432;2022-09-03T15:37:18;26.00;51.90
16116;DHT22;8162;47.104;15.432;2022-09-03T15:39:46;26.00;52.70
16116;DHT22;8162;47.104;15.432;2022-09-03T15:42:27;25.80;52.70
16116;DHT22;8162;47.104;15.432;2022-09-03T15:45:04;25.70;53.80
16116;DHT22;8162;47.104;15.432;2022-09-03T15:47:50;25.60;53.60
16116;DHT22;8162;47.104;15.432;2022-09-03T15:50:34;25.30;54.90
16116;DHT22;8162;47.104;15.432;2022-09-03T15:55:38;24.90;56.10
16116;DHT22;8162;47.104;15.432;2022-09-03T15:58:26;24.70;57.30
16116;DHT22;8162;47.104;15.432;2022-09-03T16:01:02;24.50;58.10
16116;DHT22;8162;47.104;15.432;2022-09-03T16:13:00;23.80;60.20
16116;DHT22;8162;47.104;15.432;2022-09-03T16:20:44;23.40;61.00
16116;DHT22;8162;47.104;15.432;2022-09-03T16:23:16;23.30;61.80
16116;DHT22;8162;47.104;15.432;2022-09-03T16:28:47;23.20;62.60
16116;DHT22;8162;47.104;15.432;2022-09-03T16:45:16;22.70;63.60
16116;DHT22;8162;47.104;15.432;2022-09-03T16:56:28;22.50;64.90
16116;DHT22;8162;47.104;15.432;2022-09-03T17:02:30;22.30;65.70
16116;DHT22;8162;47.104;15.432;2022-09-03T17:05:09;22.20;66.00
16116;DHT22;8162;47.104;15.432;2022-09-03T17:15:50;21.90;67.30
16116;DHT22;8162;47.104;15.432;2022-09-03T17:23:51;21.70;67.00
16116;DHT22;8162;47.104;15.432;2022-09-03T17:53:21;21.10;68.90
16116;DHT22;8162;47.104;15.432;2022-09-03T17:56:05;21.00;69.10
16116;DHT22;8162;47.104;15.432;2022-09-03T17:58:41;21.00;69.30
16116;DHT22;8162;47.104;15.432;2022-09-03T18:01:18;21.00;69.50
16116;DHT22;8162;47.104;15.432;2022-09-03T18:03:54;21.00;69.60
16116;DHT22;8162;47.104;15.432;2022-09-03T18:08:56;20.90;70.00
16116;DHT22;8162;47.104;15.432;2022-09-03T18:11:47;20.90;70.10
16116;DHT22;8162;47.104;15.432;2022-09-03T18:17:08;20.80;70.40
16116;DHT22;8162;47.104;15.432;2022-09-03T18:19:43;20.80;69.90
16116;DHT22;8162;47.104;15.432;2022-09-03T18:22:36;20.80;70.10
16116;DHT22;8162;47.104;15.432;2022-09-03T18:25:24;20.80;70.00
16116;DHT22;8162;47.104;15.432;2022-09-03T18:28:13;20.70;69.90
16116;DHT22;8162;47.104;15.432;2022-09-03T18:30:58;20.70;69.90
16116;DHT22;8162;47.104;15.432;2022-09-03T18:33:43;20.60;70.00
16116;DHT22;8162;47.104;15.432;2022-09-03T18:36:28;20.50;70.00
16116;DHT22;8162;47.104;15.432;2022-09-03T18:39:27;20.50;69.80
16116;DHT22;8162;47.104;15.432;2022-09-03T18:42:36;20.50;70.20
16116;DHT22;8162;47.104;15.432;2022-09-03T18:45:47;20.40;70.20
16116;DHT22;8162;47.104;15.432;2022-09-03T18:48:56;20.30;70.30
16116;DHT22;8162;47.104;15.432;2022-09-03T18:58:22;20.20;70.50
16116;DHT22;8162;47.104;15.432;2022-09-03T19:07:22;20.00;70.90
16116;DHT22;8162;47.104;15.432;2022-09-03T19:11:16;20.00;71.10
16116;DHT22;8162;47.104;15.432;2022-09-03T19:13:40;20.00;71.30
16116;DHT22;8162;47.104;15.432;2022-09-03T19:22:27;19.80;70.80
16116;DHT22;8162;47.104;15.432;2022-09-03T19:25:13;19.80;70.60
16116;DHT22;8162;47.104;15.432;2022-09-03T19:28:17;19.70;70.90
16116;DHT22;8162;47.104;15.432;2022-09-03T19:37:36;19.50;71.70
16116;DHT22;8162;47.104;15.432;2022-09-03T19:44:26;19.30;72.30
16116;DHT22;8162;47.104;15.432;2022-09-03T19:50:39;19.30;71.90
16116;DHT22;8162;47.104;15.432;2022-09-03T19:53:26;19.30;71.70
16116;DHT22;8162;47.104;15.432;2022-09-03T19:56:20;19.30;72.00
16116;DHT22;8162;47.104;15.432;2022-09-03T19:59:12;19.30;72.30
16116;DHT22;8162;47.104;15.432;2022-09-03T20:02:01;19.20;72.50
16116;DHT22;8162;47.104;15.432;2022-09-03T20:04:52;19.20;72.70
16116;DHT22;8162;47.104;15.432;2022-09-03T20:07:39;19.10;72.70
16116;DHT22;8162;47.104;15.432;2022-09-03T20:10:24;19.10;72.90
16116;DHT22;8162;47.104;15.432;2022-09-03T20:13:08;19.00;73.00
16116;DHT22;8162;47.104;15.432;2022-09-03T20:26:39;18.70;73.90
16116;DHT22;8162;47.104;15.432;2022-09-03T20:52:13;18.50;74.30
16116;DHT22;8162;47.104;15.432;2022-09-03T20:55:27;18.50;74.20
16116;DHT22;8162;47.104;15.432;2022-09-03T20:58:17;18.50;74.20
16116;DHT22;8162;47.104;15.432;2022-09-03T21:19:10;18.40;74.50
16116;DHT22;8162;47.104;15.432;2022-09-03T21:24:14;18.40;75.10
16116;DHT22;8162;47.104;15.432;2022-09-03T21:26:45;18.30;75.20
16116;DHT22;8162;47.104;15.432;2022-09-03T21:29:25;18.30;75.40
16116;DHT22;8162;47.104;15.432;2022-09-03T21:37:05;18.40;75.50
16116;DHT22;8162;47.104;15.432;2022-09-03T21:44:59;18.40;75.70
16116;DHT22;8162;47.104;15.432;2022-09-03T21:47:29;18.40;75.90
16116;DHT22;8162;47.104;15.432;2022-09-03T21:53:06;18.30;76.00
16116;DHT22;8162;47.104;15.432;2022-09-03T22:01:04;18.30;76.10
16116;DHT22;8162;47.104;15.432;2022-09-03T22:03:31;18.30;76.20
16116;DHT22;8162;47.104;15.432;2022-09-03T22:06:03;18.30;76.30
16116;DHT22;8162;47.104;15.432;2022-09-03T22:08:44;18.30;76.40
16116;DHT22;8162;47.104;15.432;2022-09-03T22:11:37;18.30;76.60
16116;DHT22;8162;47.104;15.432;2022-09-03T22:14:11;18.30;76.40
16116;DHT22;8162;47.104;15.432;2022-09-03T22:16:57;18.30;76.40
16116;DHT22;8162;47.104;15.432;2022-09-03T22:19:29;18.30;76.60
16116;DHT22;8162;47.104;15.432;2022-09-03T22:22:05;18.30;76.60
16116;DHT22;8162;47.104;15.432;2022-09-03T22:27:18;18.30;76.90
16116;DHT22;8162;47.104;15.432;2022-09-03T22:30:08;18.30;76.80
16116;DHT22;8162;47.104;15.432;2022-09-03T22:35:52;18.30;76.80
16116;DHT22;8162;47.104;15.432;2022-09-03T22:38:34;18.30;76.80
16116;DHT22;8162;47.104;15.432;2022-09-03T22:44:24;18.40;76.70
16116;DHT22;8162;47.104;15.432;2022-09-03T22:52:41;18.30;77.00
16116;DHT22;8162;47.104;15.432;2022-09-03T22:57:38;18.30;77.30